sensor_id;sensor_type;location;lat;lon;timestamp;temperature;humidity
11055;DHT22;5580;50.106;8.702;2023-04-03T00:02:12;5.90;99.90
11055;DHT22;5580;50.106;8.702;2023-04-03T00:04:38;5.80;99.90
11055;DHT22;5580;50.106;8.702;2023-04-03T00:07:03;5.90;99.90
11055;DHT22;5580;50.106;8.702;2023-04-03T00:09:29;5.90;99.90
11055;DHT22;5580;50.106;8.702;2023-04-03T00:11:54;5.90;99.90
11055;DHT22;5580;50.106;8.702;2023-04-03T00:14:20;5.90;99.90
11055;DHT22;5580;50.106;8.702;2023-04-03T00:16:45;5.90;99.90
11055;DHT22;5580;50.106;8.702;2023-04-03T00:19:11;5.90;99.90
11055;DHT22;5580;50.106;8.702;2023-04-03T00:21:38;5.90;99.90
11055;DHT22;5580;50.106;8.702;2023-04-03T00:24:04;5.80;99.90
11055;DHT22;5580;50.106;8.702;2023-04-03T00:26:29;5.90;99.90
11055;DHT22;5580;50.106;8.702;2023-04-03T00:28:55;5.80;99.90
11055;DHT22;5580;50.106;8.702;2023-04-03T00:31:21;5.80;99.90
11055;DHT22;5580;50.106;8.702;2023-04-03T00:33:47;5.80;99.90
11055;DHT22;5580;50.106;8.702;2023-04-03T00:36:13;5.90;99.90
11055;DHT22;5580;50.106;8.702;2023-04-03T00:38:38;5.90;99.90
11055;DHT22;5580;50.106;8.702;2023-04-03T00:41:04;5.90;99.90
11055;DHT22;5580;50.106;8.702;2023-04-03T00:43:30;5.90;99.90
11055;DHT22;5580;50.106;8.702;2023-04-03T00:45:57;5.90;99.90
11055;DHT22;5580;50.106;8.702;2023-04-03T00:48:30;5.90;99.90
11055;DHT22;5580;50.106;8.702;2023-04-03T00:50:57;5.90;99.90
11055;DHT22;5580;50.106;8.702;2023-04-03T00:53:27;5.80;99.90
11055;DHT22;5580;50.106;8.702;2023-04-03T00:55:56;5.70;99.90
11055;DHT22;5580;50.106;8.702;2023-04-03T00:58:28;5.70;99.90
11055;DHT22;5580;50.106;8.702;2023-04-03T01:00:58;5.70;99.90
11055;DHT22;5580;50.106;8.702;2023-04-03T01:03:24;5.70;99.90
11055;DHT22;5580;50.106;8.702;2023-04-03T01:05:50;5.70;99.90
11055;DHT22;5580;50.106;8.702;2023-04-03T01:08:16;5.80;99.90
11055;DHT22;5580;50.106;8.702;2023-04-03T01:10:42;5.70;99.90
11055;DHT22;5580;50.106;8.702;2023-04-03T01:13:27;5.70;99.90
11055;DHT22;5580;50.106;8.702;2023-04-03T01:15:53;5.70;99.90
11055;DHT22;5580;50.106;8.702;2023-04-03T01:18:20;5.70;99.90
11055;DHT22;5580;50.106;8.702;2023-04-03T01:23:30;5.60;99.90
11055;DHT22;5580;50.106;8.702;2023-04-03T01:25:57;5.60;99.90
11055;DHT22;5580;50.106;8.702;2023-04-03T01:28:27;5.60;99.90
11055;DHT22;5580;50.106;8.702;2023-04-03T01:33:38;5.60;99.90
11055;DHT22;5580;50.106;8.702;2023-04-03T01:36:04;5.50;99.90
11055;DHT22;5580;50.106;8.702;2023-04-03T01:38:30;5.60;99.90
11055;DHT22;5580;50.106;8.702;2023-04-03T01:40:56;5.60;99.90
11055;DHT22;5580;50.106;8.702;2023-04-03T01:43:21;5.70;99.90
11055;DHT22;5580;50.106;8.702;2023-04-03T01:45:47;5.80;99.90
11055;DHT22;5580;50.106;8.702;2023-04-03T01:48:14;5.90;99.90
11055;DHT22;5580;50.106;8.702;2023-04-03T01:50:41;5.90;99.90
11055;DHT22;5580;50.106;8.702;2023-04-03T01:53:06;5.90;99.90
11055;DHT22;5580;50.106;8.702;2023-04-03T01:55:32;5.80;99.90
11055;DHT22;5580;50.106;8.702;2023-04-03T01:57:58;5.80;99.90
11055;DHT22;5580;50.106;8.702;2023-04-03T02:00:23;5.70;99.90
11055;DHT22;5580;50.106;8.702;2023-04-03T02:02:49;5.80;99.90
11055;DHT22;5580;50.106;8.702;2023-04-03T02:05:14;5.80;99.90
11055;DHT22;5580;50.106;8.702;2023-04-03T02:07:40;5.70;99.90
11055;DHT22;5580;50.106;8.702;2023-04-03T02:10:06;5.70;99.90
11055;DHT22;5580;50.106;8.702;2023-04-03T02:12:32;5.70;99.90
11055;DHT22;5580;50.106;8.702;2023-04-03T02:14:57;5.70;99.90
11055;DHT22;5580;50.106;8.702;2023-04-03T02:17:23;5.70;99.90
11055;DHT22;5580;50.106;8.702;2023-04-03T02:19:48;5.60;99.90
11055;DHT22;5580;50.106;8.702;2023-04-03T02:22:14;5.60;99.90
11055;DHT22;5580;50.106;8.702;2023-04-03T02:24:40;5.60;99.90
11055;DHT22;5580;50.106;8.702;2023-04-03T02:27:06;5.60;99.90
11055;DHT22;5580;50.106;8.702;2023-04-03T02:29:32;5.60;99.90
11055;DHT22;5580;50.106;8.702;2023-04-03T02:31:58;5.70;99.90
11055;DHT22;5580;50.106;8.702;2023-04-03T02:34:23;5.70;99.90
11055;DHT22;5580;50.106;8.702;2023-04-03T02:36:49;5.60;99.90
11055;DHT22;5580;50.106;8.702;2023-04-03T02:39:15;5.60;99.90
11055;DHT22;5580;50.106;8.702;2023-04-03T02:41:41;5.60;99.90
11055;DHT22;5580;50.106;8.702;2023-04-03T02:44:08;5.60;99.90
11055;DHT22;5580;50.106;8.702;2023-04-03T02:46:34;5.60;99.90
11055;DHT22;5580;50.106;8.702;2023-04-03T02:49:00;5.60;99.90
11055;DHT22;5580;50.106;8.702;2023-04-03T02:51:26;5.60;99.90
11055;DHT22;5580;50.106;8.702;2023-04-03T02:53:51;5.50;99.90
11055;DHT22;5580;50.106;8.702;2023-04-03T02:56:17;5.50;99.90
11055;DHT22;5580;50.106;8.702;2023-04-03T02:58:44;5.50;99.90
11055;DHT22;5580;50.106;8.702;2023-04-03T03:01:11;5.50;99.90
11055;DHT22;5580;50.106;8.702;2023-04-03T03:03:37;5.50;99.90
11055;DHT22;5580;50.106;8.702;2023-04-03T03:06:08;5.40;99.90
11055;DHT22;5580;50.106;8.702;2023-04-03T03:08:34;5.40;99.90
11055;DHT22;5580;50.106;8.702;2023-04-03T03:11:00;5.40;99.90
11055;DHT22;5580;50.106;8.702;2023-04-03T03:13:26;5.40;99.90
11055;DHT22;5580;50.106;8.702;2023-04-03T03:15:51;5.40;99.90
11055;DHT22;5580;50.106;8.702;2023-04-03T03:18:17;5.40;99.90
11055;DHT22;5580;50.106;8.702;2023-04-03T03:20:43;5.40;99.90
11055;DHT22;5580;50.106;8.702;2023-04-03T03:23:08;5.40;99.90
11055;DHT22;5580;50.106;8.702;2023-04-03T03:25:38;5.30;99.90
11055;DHT22;5580;50.106;8.702;2023-04-03T03:28:04;5.30;99.90
11055;DHT22;5580;50.106;8.702;2023-04-03T03:30:30;5.30;99.90
11055;DHT22;5580;50.106;8.702;2023-04-03T03:32:56;5.30;99.90
11055;DHT22;5580;50.106;8.702;2023-04-03T03:35:21;5.30;99.90
11055;DHT22;5580;50.106;8.702;2023-04-03T03:37:47;5.20;99.90
11055;DHT22;5580;50.106;8.702;2023-04-03T03:40:13;5.20;99.90
11055;DHT22;5580;50.106;8.702;2023-04-03T03:42:39;5.20;99.90
11055;DHT22;5580;50.106;8.702;2023-04-03T03:45:05;5.10;99.90
11055;DHT22;5580;50.106;8.702;2023-04-03T03:47:31;5.10;99.90
11055;DHT22;5580;50.106;8.702;2023-04-03T03:49:56;5.10;99.90
11055;DHT22;5580;50.106;8.702;2023-04-03T03:52:22;5.10;99.90
11055;DHT22;5580;50.106;8.702;2023-04-03T03:54:47;5.10;99.90
11055;DHT22;5580;50.106;8.702;2023-04-03T03:57:13;5.00;99.90
11055;DHT22;5580;50.106;8.702;2023-04-03T03:59:39;4.90;99.90
11055;DHT22;5580;50.106;8.702;2023-04-03T04:02:07;4.90;99.90
11055;DHT22;5580;50.106;8.702;2023-04-03T04:04:32;4.90;99.90
11055;DHT22;5580;50.106;8.702;2023-04-03T04:06:58;4.90;99.90
11055;DHT22;5580;50.106;8.702;2023-04-03T04:09:26;4.80;99.90
11055;DHT22;5580;50.106;8.702;2023-04-03T04:11:51;4.70;99.90
11055;DHT22;5580;50.106;8.702;2023-04-03T04:14:17;4.60;99.90
11055;DHT22;5580;50.106;8.702;2023-04-03T04:16:43;4.60;99.90
11055;DHT22;5580;50.106;8.702;2023-04-03T04:19:08;4.50;99.90
11055;DHT22;5580;50.106;8.702;2023-04-03T04:21:34;4.50;99.90
11055;DHT22;5580;50.106;8.702;2023-04-03T04:23:59;4.40;99.90
11055;DHT22;5580;50.106;8.702;2023-04-03T04:26:25;4.40;99.90
11055;DHT22;5580;50.106;8.702;2023-04-03T04:28:51;4.50;99.90
11055;DHT22;5580;50.106;8.702;2023-04-03T04:31:16;4.40;99.90
11055;DHT22;5580;50.106;8.702;2023-04-03T04:33:42;4.40;99.90
11055;DHT22;5580;50.106;8.702;2023-04-03T04:36:07;4.30;99.90
11055;DHT22;5580;50.106;8.702;2023-04-03T04:38:33;4.30;99.90
11055;DHT22;5580;50.106;8.702;2023-04-03T04:40:59;4.30;99.90
11055;DHT22;5580;50.106;8.702;2023-04-03T04:43:24;4.30;99.90
11055;DHT22;5580;50.106;8.702;2023-04-03T04:46:06;4.20;99.90
11055;DHT22;5580;50.106;8.702;2023-04-03T04:48:33;4.20;99.90
11055;DHT22;5580;50.106;8.702;2023-04-03T04:50:59;4.00;99.90
11055;DHT22;5580;50.106;8.702;2023-04-03T04:53:24;4.00;99.90
11055;DHT22;5580;50.106;8.702;2023-04-03T04:55:50;4.00;99.90
11055;DHT22;5580;50.106;8.702;2023-04-03T04:58:16;4.00;99.90
11055;DHT22;5580;50.106;8.702;2023-04-03T05:00:41;4.10;99.90
11055;DHT22;5580;50.106;8.702;2023-04-03T05:03:07;4.10;99.90
11055;DHT22;5580;50.106;8.702;2023-04-03T05:05:32;4.00;99.90
11055;DHT22;5580;50.106;8.702;2023-04-03T05:07:58;4.00;99.90
11055;DHT22;5580;50.106;8.702;2023-04-03T05:10:24;4.10;99.90
11055;DHT22;5580;50.106;8.702;2023-04-03T05:12:49;4.00;99.90
11055;DHT22;5580;50.106;8.702;2023-04-03T05:15:15;3.90;99.90
11055;DHT22;5580;50.106;8.702;2023-04-03T05:17:40;3.90;99.90
11055;DHT22;5580;50.106;8.702;2023-04-03T05:20:06;3.90;99.90
11055;DHT22;5580;50.106;8.702;2023-04-03T05:22:32;3.90;99.90
11055;DHT22;5580;50.106;8.702;2023-04-03T05:24:58;3.90;99.90
11055;DHT22;5580;50.106;8.702;2023-04-03T05:27:24;3.90;99.90
11055;DHT22;5580;50.106;8.702;2023-04-03T05:29:50;4.00;99.90
11055;DHT22;5580;50.106;8.702;2023-04-03T05:32:18;3.90;99.90
11055;DHT22;5580;50.106;8.702;2023-04-03T05:34:44;4.00;99.90
11055;DHT22;5580;50.106;8.702;2023-04-03T05:37:10;4.00;99.90
11055;DHT22;5580;50.106;8.702;2023-04-03T05:39:35;3.90;99.90
11055;DHT22;5580;50.106;8.702;2023-04-03T05:42:01;3.90;99.90
11055;DHT22;5580;50.106;8.702;2023-04-03T05:44:27;3.80;99.90
11055;DHT22;5580;50.106;8.702;2023-04-03T05:46:52;3.80;99.90
11055;DHT22;5580;50.106;8.702;2023-04-03T05:49:18;3.90;99.90
11055;DHT22;5580;50.106;8.702;2023-04-03T05:51:43;3.90;99.90
11055;DHT22;5580;50.106;8.702;2023-04-03T05:54:19;3.80;99.90
11055;DHT22;5580;50.106;8.702;2023-04-03T05:56:45;3.70;99.90
11055;DHT22;5580;50.106;8.702;2023-04-03T05:59:11;3.80;99.90
11055;DHT22;5580;50.106;8.702;2023-04-03T06:01:37;3.80;99.90
11055;DHT22;5580;50.106;8.702;2023-04-03T06:04:03;3.70;99.90
11055;DHT22;5580;50.106;8.702;2023-04-03T06:09:09;3.70;99.90
11055;DHT22;5580;50.106;8.702;2023-04-03T06:11:35;3.70;99.90
11055;DHT22;5580;50.106;8.702;2023-04-03T06:14:01;3.70;99.90
11055;DHT22;5580;50.106;8.702;2023-04-03T06:16:26;3.70;99.90
11055;DHT22;5580;50.106;8.702;2023-04-03T06:18:52;3.70;99.90
11055;DHT22;5580;50.106;8.702;2023-04-03T06:21:17;3.70;99.90
11055;DHT22;5580;50.106;8.702;2023-04-03T06:23:43;3.70;99.90
11055;DHT22;5580;50.106;8.702;2023-04-03T06:26:08;3.70;99.90
11055;DHT22;5580;50.106;8.702;2023-04-03T06:28:34;3.70;99.90
11055;DHT22;5580;50.106;8.702;2023-04-03T06:30:59;3.70;99.90
11055;DHT22;5580;50.106;8.702;2023-04-03T06:33:25;3.70;99.90
11055;DHT22;5580;50.106;8.702;2023-04-03T06:35:56;3.70;99.90
11055;DHT22;5580;50.106;8.702;2023-04-03T06:38:22;3.70;99.90
11055;DHT22;5580;50.106;8.702;2023-04-03T06:40:47;3.70;99.90
11055;DHT22;5580;50.106;8.702;2023-04-03T06:43:13;3.60;99.90
11055;DHT22;5580;50.106;8.702;2023-04-03T06:45:39;3.70;99.90
11055;DHT22;5580;50.106;8.702;2023-04-03T06:48:04;3.70;99.90
11055;DHT22;5580;50.106;8.702;2023-04-03T06:50:30;3.80;99.90
11055;DHT22;5580;50.106;8.702;2023-04-03T06:52:56;3.80;99.90
11055;DHT22;5580;50.106;8.702;2023-04-03T06:55:22;3.70;99.90
11055;DHT22;5580;50.106;8.702;2023-04-03T06:57:47;3.70;99.90
11055;DHT22;5580;50.106;8.702;2023-04-03T07:00:13;3.70;99.90
11055;DHT22;5580;50.106;8.702;2023-04-03T07:02:40;3.70;99.90
11055;DHT22;5580;50.106;8.702;2023-04-03T07:05:06;3.70;99.90
11055;DHT22;5580;50.106;8.702;2023-04-03T07:07:32;3.70;99.90
11055;DHT22;5580;50.106;8.702;2023-04-03T07:09:59;3.70;99.90
11055;DHT22;5580;50.106;8.702;2023-04-03T07:12:25;3.70;99.90
11055;DHT22;5580;50.106;8.702;2023-04-03T07:14:51;3.70;99.90
11055;DHT22;5580;50.106;8.702;2023-04-03T07:17:17;3.70;99.90
11055;DHT22;5580;50.106;8.702;2023-04-03T07:19:42;3.70;99.90
11055;DHT22;5580;50.106;8.702;2023-04-03T07:22:08;3.70;99.90
11055;DHT22;5580;50.106;8.702;2023-04-03T07:24:34;3.80;99.90
11055;DHT22;5580;50.106;8.702;2023-04-03T07:27:00;3.80;99.90
11055;DHT22;5580;50.106;8.702;2023-04-03T07:29:26;3.80;99.90
11055;DHT22;5580;50.106;8.702;2023-04-03T07:31:52;3.80;99.90
11055;DHT22;5580;50.106;8.702;2023-04-03T07:34:18;3.80;99.90
11055;DHT22;5580;50.106;8.702;2023-04-03T07:36:44;3.90;99.90
11055;DHT22;5580;50.106;8.702;2023-04-03T07:39:09;3.90;99.90
11055;DHT22;5580;50.106;8.702;2023-04-03T07:41:36;4.00;99.90
11055;DHT22;5580;50.106;8.702;2023-04-03T07:44:02;4.10;99.90
11055;DHT22;5580;50.106;8.702;2023-04-03T07:46:28;4.10;99.90
11055;DHT22;5580;50.106;8.702;2023-04-03T07:48:53;4.10;99.90
11055;DHT22;5580;50.106;8.702;2023-04-03T07:51:19;4.20;99.90
11055;DHT22;5580;50.106;8.702;2023-04-03T07:53:45;4.20;99.90
11055;DHT22;5580;50.106;8.702;2023-04-03T07:56:11;4.10;99.90
11055;DHT22;5580;50.106;8.702;2023-04-03T07:58:36;4.10;99.90
11055;DHT22;5580;50.106;8.702;2023-04-03T08:01:02;4.20;99.90
11055;DHT22;5580;50.106;8.702;2023-04-03T08:03:28;4.30;99.90
11055;DHT22;5580;50.106;8.702;2023-04-03T08:05:54;4.30;99.90
11055;DHT22;5580;50.106;8.702;2023-04-03T08:08:23;4.30;99.90
11055;DHT22;5580;50.106;8.702;2023-04-03T08:10:53;4.30;99.90
11055;DHT22;5580;50.106;8.702;2023-04-03T08:13:19;4.20;99.90
11055;DHT22;5580;50.106;8.702;2023-04-03T08:15:46;4.20;99.90
11055;DHT22;5580;50.106;8.702;2023-04-03T08:18:12;4.30;99.90
11055;DHT22;5580;50.106;8.702;2023-04-03T08:20:39;4.30;99.90
11055;DHT22;5580;50.106;8.702;2023-04-03T08:23:06;4.40;99.90
11055;DHT22;5580;50.106;8.702;2023-04-03T08:25:33;4.50;99.90
11055;DHT22;5580;50.106;8.702;2023-04-03T08:27:59;4.60;99.90
11055;DHT22;5580;50.106;8.702;2023-04-03T08:30:25;4.60;99.90
11055;DHT22;5580;50.106;8.702;2023-04-03T08:32:50;4.60;99.90
11055;DHT22;5580;50.106;8.702;2023-04-03T08:35:16;4.90;99.90
11055;DHT22;5580;50.106;8.702;2023-04-03T08:37:42;5.10;99.90
11055;DHT22;5580;50.106;8.702;2023-04-03T08:40:14;5.20;99.90
11055;DHT22;5580;50.106;8.702;2023-04-03T08:45:45;5.60;99.90
11055;DHT22;5580;50.106;8.702;2023-04-03T08:48:36;5.90;99.90
11055;DHT22;5580;50.106;8.702;2023-04-03T08:51:11;5.90;99.90
11055;DHT22;5580;50.106;8.702;2023-04-03T08:53:43;5.90;99.90
11055;DHT22;5580;50.106;8.702;2023-04-03T08:56:10;5.80;99.90
11055;DHT22;5580;50.106;8.702;2023-04-03T08:58:47;5.70;99.90
11055;DHT22;5580;50.106;8.702;2023-04-03T09:03:43;5.70;99.90
11055;DHT22;5580;50.106;8.702;2023-04-03T09:06:25;5.70;99.90
11055;DHT22;5580;50.106;8.702;2023-04-03T09:14:13;5.90;99.90
11055;DHT22;5580;50.106;8.702;2023-04-03T09:16:59;6.00;99.90
11055;DHT22;5580;50.106;8.702;2023-04-03T09:22:02;6.10;99.90
11055;DHT22;5580;50.106;8.702;2023-04-03T09:24:28;6.10;99.90
11055;DHT22;5580;50.106;8.702;2023-04-03T09:27:01;6.10;99.90
11055;DHT22;5580;50.106;8.702;2023-04-03T09:29:28;6.10;99.90
11055;DHT22;5580;50.106;8.702;2023-04-03T09:32:00;6.20;99.90
11055;DHT22;5580;50.106;8.702;2023-04-03T09:34:35;6.20;99.90
11055;DHT22;5580;50.106;8.702;2023-04-03T09:37:03;6.10;99.90
11055;DHT22;5580;50.106;8.702;2023-04-03T09:39:32;6.10;99.90
11055;DHT22;5580;50.106;8.702;2023-04-03T09:42:03;6.00;99.90
11055;DHT22;5580;50.106;8.702;2023-04-03T09:44:35;6.10;99.90
11055;DHT22;5580;50.106;8.702;2023-04-03T09:47:28;6.10;99.90
11055;DHT22;5580;50.106;8.702;2023-04-03T09:52:39;6.10;99.90
11055;DHT22;5580;50.106;8.702;2023-04-03T09:57:39;6.00;99.90
11055;DHT22;5580;50.106;8.702;2023-04-03T10:00:10;6.00;99.90
11055;DHT22;5580;50.106;8.702;2023-04-03T10:02:44;6.10;99.90
11055;DHT22;5580;50.106;8.702;2023-04-03T10:05:47;6.10;99.90
11055;DHT22;5580;50.106;8.702;2023-04-03T10:10:42;6.20;99.90
11055;DHT22;5580;50.106;8.702;2023-04-03T10:13:15;6.30;99.90
11055;DHT22;5580;50.106;8.702;2023-04-03T10:15:55;6.20;99.90
11055;DHT22;5580;50.106;8.702;2023-04-03T10:20:54;6.20;99.90
11055;DHT22;5580;50.106;8.702;2023-04-03T10:23:27;6.20;99.90
11055;DHT22;5580;50.106;8.702;2023-04-03T10:26:24;6.40;99.90
11055;DHT22;5580;50.106;8.702;2023-04-03T10:29:25;6.40;99.90
11055;DHT22;5580;50.106;8.702;2023-04-03T10:32:22;6.40;99.90
11055;DHT22;5580;50.106;8.702;2023-04-03T10:35:18;6.40;99.90
11055;DHT22;5580;50.106;8.702;2023-04-03T10:38:07;6.40;99.90
11055;DHT22;5580;50.106;8.702;2023-04-03T10:43:21;6.60;99.90
11055;DHT22;5580;50.106;8.702;2023-04-03T10:51:28;6.70;99.90
11055;DHT22;5580;50.106;8.702;2023-04-03T10:56:47;6.50;99.90
11055;DHT22;5580;50.106;8.702;2023-04-03T10:59:25;6.50;99.90
11055;DHT22;5580;50.106;8.702;2023-04-03T11:01:59;6.50;99.90
11055;DHT22;5580;50.106;8.702;2023-04-03T11:04:28;6.50;99.90
11055;DHT22;5580;50.106;8.702;2023-04-03T11:07:00;6.50;99.90
11055;DHT22;5580;50.106;8.702;2023-04-03T11:09:40;6.40;99.90
11055;DHT22;5580;50.106;8.702;2023-04-03T11:15:20;6.60;99.90
11055;DHT22;5580;50.106;8.702;2023-04-03T11:17:54;6.50;99.90
11055;DHT22;5580;50.106;8.702;2023-04-03T11:20:29;6.60;99.90
11055;DHT22;5580;50.106;8.702;2023-04-03T11:23:05;6.50;99.90
11055;DHT22;5580;50.106;8.702;2023-04-03T11:25:36;6.50;99.90
11055;DHT22;5580;50.106;8.702;2023-04-03T11:28:06;6.50;99.90
11055;DHT22;5580;50.106;8.702;2023-04-03T11:35:57;6.60;99.90
11055;DHT22;5580;50.106;8.702;2023-04-03T11:38:30;6.60;99.90
11055;DHT22;5580;50.106;8.702;2023-04-03T11:41:00;6.60;99.90
11055;DHT22;5580;50.106;8.702;2023-04-03T11:43:29;6.60;99.90
11055;DHT22;5580;50.106;8.702;2023-04-03T11:46:06;6.60;99.90
11055;DHT22;5580;50.106;8.702;2023-04-03T11:53:45;6.70;99.90
11055;DHT22;5580;50.106;8.702;2023-04-03T12:01:48;6.70;99.90
11055;DHT22;5580;50.106;8.702;2023-04-03T12:04:15;6.70;99.90
11055;DHT22;5580;50.106;8.702;2023-04-03T12:06:50;6.80;99.90
11055;DHT22;5580;50.106;8.702;2023-04-03T12:09:34;6.90;99.90
11055;DHT22;5580;50.106;8.702;2023-04-03T12:12:21;6.80;99.90
11055;DHT22;5580;50.106;8.702;2023-04-03T12:14:47;6.80;99.90
11055;DHT22;5580;50.106;8.702;2023-04-03T12:17:22;6.70;99.90
11055;DHT22;5580;50.106;8.702;2023-04-03T12:19:49;6.80;99.90
11055;DHT22;5580;50.106;8.702;2023-04-03T12:22:19;6.90;99.90
11055;DHT22;5580;50.106;8.702;2023-04-03T12:24:48;7.10;99.90
11055;DHT22;5580;50.106;8.702;2023-04-03T12:27:26;7.00;99.90
11055;DHT22;5580;50.106;8.702;2023-04-03T12:29:58;6.90;99.90
11055;DHT22;5580;50.106;8.702;2023-04-03T12:33:03;6.90;99.90
11055;DHT22;5580;50.106;8.702;2023-04-03T12:35:36;7.00;99.90
11055;DHT22;5580;50.106;8.702;2023-04-03T12:46:22;7.00;99.90
11055;DHT22;5580;50.106;8.702;2023-04-03T12:48:58;7.00;99.90
11055;DHT22;5580;50.106;8.702;2023-04-03T12:51:42;7.00;99.90
11055;DHT22;5580;50.106;8.702;2023-04-03T12:56:44;7.00;99.90
11055;DHT22;5580;50.106;8.702;2023-04-03T12:59:21;7.00;99.90
11055;DHT22;5580;50.106;8.702;2023-04-03T13:02:00;7.00;99.90
11055;DHT22;5580;50.106;8.702;2023-04-03T13:04:31;7.00;99.90
11055;DHT22;5580;50.106;8.702;2023-04-03T13:06:57;6.90;99.90
11055;DHT22;5580;50.106;8.702;2023-04-03T13:09:29;6.90;99.90
11055;DHT22;5580;50.106;8.702;2023-04-03T13:12:03;6.90;99.90
11055;DHT22;5580;50.106;8.702;2023-04-03T13:14:34;6.90;99.90
11055;DHT22;5580;50.106;8.702;2023-04-03T13:17:12;7.00;99.90
11055;DHT22;5580;50.106;8.702;2023-04-03T13:19:40;7.10;99.90
11055;DHT22;5580;50.106;8.702;2023-04-03T13:22:26;7.10;99.90
11055;DHT22;5580;50.106;8.702;2023-04-03T13:24:54;7.20;99.90
11055;DHT22;5580;50.106;8.702;2023-04-03T13:27:20;7.20;99.90
11055;DHT22;5580;50.106;8.702;2023-04-03T13:29:51;7.30;99.90
11055;DHT22;5580;50.106;8.702;2023-04-03T13:32:21;7.30;99.90
11055;DHT22;5580;50.106;8.702;2023-04-03T13:34:48;7.30;99.90
11055;DHT22;5580;50.106;8.702;2023-04-03T13:42:27;7.30;99.90
11055;DHT22;5580;50.106;8.702;2023-04-03T13:45:23;7.40;99.90
11055;DHT22;5580;50.106;8.702;2023-04-03T13:47:51;7.40;99.90
11055;DHT22;5580;50.106;8.702;2023-04-03T13:50:24;7.50;99.90
11055;DHT22;5580;50.106;8.702;2023-04-03T13:53:02;7.50;99.90
11055;DHT22;5580;50.106;8.702;2023-04-03T13:55:30;7.50;99.90
11055;DHT22;5580;50.106;8.702;2023-04-03T14:00:38;7.40;99.90
11055;DHT22;5580;50.106;8.702;2023-04-03T14:05:55;7.40;99.90
11055;DHT22;5580;50.106;8.702;2023-04-03T14:08:21;7.30;99.70
11055;DHT22;5580;50.106;8.702;2023-04-03T14:10:47;7.30;99.50
11055;DHT22;5580;50.106;8.702;2023-04-03T14:13:16;7.40;99.90
11055;DHT22;5580;50.106;8.702;2023-04-03T14:15:43;7.30;99.70
11055;DHT22;5580;50.106;8.702;2023-04-03T14:18:12;7.40;99.90
11055;DHT22;5580;50.106;8.702;2023-04-03T14:20:38;7.40;99.90
11055;DHT22;5580;50.106;8.702;2023-04-03T14:23:04;7.40;99.90
11055;DHT22;5580;50.106;8.702;2023-04-03T14:25:29;7.40;99.60
11055;DHT22;5580;50.106;8.702;2023-04-03T14:27:55;7.30;98.50
11055;DHT22;5580;50.106;8.702;2023-04-03T14:30:33;7.30;99.00
11055;DHT22;5580;50.106;8.702;2023-04-03T14:32:59;7.40;99.40
11055;DHT22;5580;50.106;8.702;2023-04-03T14:35:26;7.40;99.00
11055;DHT22;5580;50.106;8.702;2023-04-03T14:37:53;7.40;99.10
11055;DHT22;5580;50.106;8.702;2023-04-03T14:40:23;7.40;98.50
11055;DHT22;5580;50.106;8.702;2023-04-03T14:42:49;7.50;99.80
11055;DHT22;5580;50.106;8.702;2023-04-03T14:45:17;7.60;99.80
11055;DHT22;5580;50.106;8.702;2023-04-03T14:47:54;7.60;99.50
11055;DHT22;5580;50.106;8.702;2023-04-03T14:50:24;7.60;98.70
11055;DHT22;5580;50.106;8.702;2023-04-03T14:52:51;7.60;98.90
11055;DHT22;5580;50.106;8.702;2023-04-03T14:55:21;7.50;98.80
11055;DHT22;5580;50.106;8.702;2023-04-03T14:57:47;7.50;99.40
11055;DHT22;5580;50.106;8.702;2023-04-03T15:00:18;7.50;99.20
11055;DHT22;5580;50.106;8.702;2023-04-03T15:02:44;7.60;99.70
11055;DHT22;5580;50.106;8.702;2023-04-03T15:05:12;7.60;99.40
11055;DHT22;5580;50.106;8.702;2023-04-03T15:07:45;7.60;98.50
11055;DHT22;5580;50.106;8.702;2023-04-03T15:12:41;7.60;99.40
11055;DHT22;5580;50.106;8.702;2023-04-03T15:15:07;7.60;98.60
11055;DHT22;5580;50.106;8.702;2023-04-03T15:17:34;7.60;98.00
11055;DHT22;5580;50.106;8.702;2023-04-03T15:20:00;7.50;97.90
11055;DHT22;5580;50.106;8.702;2023-04-03T15:22:25;7.50;98.10
11055;DHT22;5580;50.106;8.702;2023-04-03T15:24:51;7.50;97.60
11055;DHT22;5580;50.106;8.702;2023-04-03T15:27:17;7.50;98.20
11055;DHT22;5580;50.106;8.702;2023-04-03T15:29:43;7.50;97.50
11055;DHT22;5580;50.106;8.702;2023-04-03T15:32:09;7.50;97.00
11055;DHT22;5580;50.106;8.702;2023-04-03T15:34:36;7.50;97.90
11055;DHT22;5580;50.106;8.702;2023-04-03T15:37:01;7.60;98.80
11055;DHT22;5580;50.106;8.702;2023-04-03T15:39:27;7.60;98.10
11055;DHT22;5580;50.106;8.702;2023-04-03T15:41:53;7.60;97.60
11055;DHT22;5580;50.106;8.702;2023-04-03T15:44:20;7.60;97.90
11055;DHT22;5580;50.106;8.702;2023-04-03T15:46:46;7.60;97.80
11055;DHT22;5580;50.106;8.702;2023-04-03T15:49:14;7.60;97.30
11055;DHT22;5580;50.106;8.702;2023-04-03T15:51:39;7.50;97.30
11055;DHT22;5580;50.106;8.702;2023-04-03T15:54:05;7.50;98.00
11055;DHT22;5580;50.106;8.702;2023-04-03T15:56:30;7.60;97.60
11055;DHT22;5580;50.106;8.702;2023-04-03T15:58:56;7.60;98.00
11055;DHT22;5580;50.106;8.702;2023-04-03T16:01:22;7.60;97.50
11055;DHT22;5580;50.106;8.702;2023-04-03T16:03:47;7.60;98.50
11055;DHT22;5580;50.106;8.702;2023-04-03T16:06:15;7.60;97.60
11055;DHT22;5580;50.106;8.702;2023-04-03T16:08:41;7.50;97.40
11055;DHT22;5580;50.106;8.702;2023-04-03T16:11:07;7.50;97.30
11055;DHT22;5580;50.106;8.702;2023-04-03T16:13:32;7.50;97.40
11055;DHT22;5580;50.106;8.702;2023-04-03T16:15:59;7.50;97.50
11055;DHT22;5580;50.106;8.702;2023-04-03T16:18:26;7.50;97.60
11055;DHT22;5580;50.106;8.702;2023-04-03T16:20:52;7.60;97.60
11055;DHT22;5580;50.106;8.702;2023-04-03T16:23:18;7.50;96.90
11055;DHT22;5580;50.106;8.702;2023-04-03T16:25:44;7.50;96.80
11055;DHT22;5580;50.106;8.702;2023-04-03T16:28:13;7.50;96.90
11055;DHT22;5580;50.106;8.702;2023-04-03T16:30:41;7.40;96.60
11055;DHT22;5580;50.106;8.702;2023-04-03T16:33:08;7.40;97.40
11055;DHT22;5580;50.106;8.702;2023-04-03T16:35:34;7.50;97.70
11055;DHT22;5580;50.106;8.702;2023-04-03T16:37:59;7.50;96.90
11055;DHT22;5580;50.106;8.702;2023-04-03T16:40:25;7.40;96.80
11055;DHT22;5580;50.106;8.702;2023-04-03T16:42:51;7.50;97.10
11055;DHT22;5580;50.106;8.702;2023-04-03T16:45:16;7.40;96.10
11055;DHT22;5580;50.106;8.702;2023-04-03T16:47:42;7.30;96.30
11055;DHT22;5580;50.106;8.702;2023-04-03T16:50:08;7.30;96.20
11055;DHT22;5580;50.106;8.702;2023-04-03T16:52:34;7.20;96.30
11055;DHT22;5580;50.106;8.702;2023-04-03T16:54:59;7.30;96.50
11055;DHT22;5580;50.106;8.702;2023-04-03T16:57:25;7.30;96.60
11055;DHT22;5580;50.106;8.702;2023-04-03T16:59:51;7.30;96.70
11055;DHT22;5580;50.106;8.702;2023-04-03T17:02:17;7.30;97.00
11055;DHT22;5580;50.106;8.702;2023-04-03T17:04:43;7.30;97.10
11055;DHT22;5580;50.106;8.702;2023-04-03T17:07:08;7.30;96.70
11055;DHT22;5580;50.106;8.702;2023-04-03T17:09:34;7.30;96.70
11055;DHT22;5580;50.106;8.702;2023-04-03T17:12:00;7.20;96.60
11055;DHT22;5580;50.106;8.702;2023-04-03T17:14:26;7.20;96.60
11055;DHT22;5580;50.106;8.702;2023-04-03T17:16:51;7.10;96.20
11055;DHT22;5580;50.106;8.702;2023-04-03T17:19:17;7.00;97.00
11055;DHT22;5580;50.106;8.702;2023-04-03T17:21:43;7.10;97.30
11055;DHT22;5580;50.106;8.702;2023-04-03T17:24:11;7.10;96.60
11055;DHT22;5580;50.106;8.702;2023-04-03T17:26:39;7.00;96.40
11055;DHT22;5580;50.106;8.702;2023-04-03T17:29:05;7.00;96.70
11055;DHT22;5580;50.106;8.702;2023-04-03T17:31:31;6.90;97.20
11055;DHT22;5580;50.106;8.702;2023-04-03T17:33:57;6.90;97.20
11055;DHT22;5580;50.106;8.702;2023-04-03T17:36:22;6.90;97.80